sensor_id;sensor_type;location;lat;lon;timestamp;pressure;altitude;pressure_sealevel;temperature;humidity
11440;BME280;5776;51.814;4.510;2024-01-15T00:02:09;100498.16;;;2.50;100.00
11440;BME280;5776;51.814;4.510;2024-01-15T00:04:39;100487.59;;;2.44;100.00
11440;BME280;5776;51.814;4.510;2024-01-15T00:07:06;100489.72;;;2.42;100.00
11440;BME280;5776;51.814;4.510;2024-01-15T00:09:32;100483.38;;;2.48;100.00
11440;BME280;5776;51.814;4.510;2024-01-15T00:12:02;100486.41;;;2.51;100.00
11440;BME280;5776;51.814;4.510;2024-01-15T00:14:27;100490.47;;;2.54;100.00
11440;BME280;5776;51.814;4.510;2024-01-15T00:16:54;100479.88;;;2.47;100.00
11440;BME280;5776;51.814;4.510;2024-01-15T00:19:21;100476.78;;;2.55;100.00
11440;BME280;5776;51.814;4.510;2024-01-15T00:21:47;100475.75;;;2.56;100.00
11440;BME280;5776;51.814;4.510;2024-01-15T00:24:13;100470.47;;;2.62;100.00
11440;BME280;5776;51.814;4.510;2024-01-15T00:26:39;100477.44;;;2.63;100.00
11440;BME280;5776;51.814;4.510;2024-01-15T00:29:09;100463.38;;;2.55;100.00
11440;BME280;5776;51.814;4.510;2024-01-15T00:31:36;100463.31;;;2.50;100.00
11440;BME280;5776;51.814;4.510;2024-01-15T00:34:02;100456.56;;;2.65;100.00
11440;BME280;5776;51.814;4.510;2024-01-15T00:36:28;100464.78;;;2.75;100.00
11440;BME280;5776;51.814;4.510;2024-01-15T00:38:54;100466.56;;;2.69;100.00
11440;BME280;5776;51.814;4.510;2024-01-15T00:41:20;100465.19;;;2.50;100.00
11440;BME280;5776;51.814;4.510;2024-01-15T00:43:46;100464.63;;;2.31;100.00
11440;BME280;5776;51.814;4.510;2024-01-15T00:46:15;100463.63;;;2.37;100.00
11440;BME280;5776;51.814;4.510;2024-01-15T00:48:41;100452.25;;;2.47;100.00
11440;BME280;5776;51.814;4.510;2024-01-15T00:51:07;100442.13;;;2.49;100.00
11440;BME280;5776;51.814;4.510;2024-01-15T00:53:33;100447.06;;;2.57;100.00
11440;BME280;5776;51.814;4.510;2024-01-15T00:55:59;100443.97;;;2.48;100.00
11440;BME280;5776;51.814;4.510;2024-01-15T00:58:26;100439.34;;;2.44;100.00
11440;BME280;5776;51.814;4.510;2024-01-15T01:00:52;100431.53;;;2.42;100.00
11440;BME280;5776;51.814;4.510;2024-01-15T01:03:18;100443.88;;;2.43;100.00
11440;BME280;5776;51.814;4.510;2024-01-15T01:05:44;100433.81;;;2.50;100.00
11440;BME280;5776;51.814;4.510;2024-01-15T01:08:10;100434.16;;;2.54;100.00
11440;BME280;5776;51.814;4.510;2024-01-15T01:10:37;100430.09;;;2.51;100.00
11440;BME280;5776;51.814;4.510;2024-01-15T01:13:03;100431.78;;;2.57;100.00
11440;BME280;5776;51.814;4.510;2024-01-15T01:15:28;100427.72;;;2.55;100.00
11440;BME280;5776;51.814;4.510;2024-01-15T01:17:54;100428.53;;;2.55;100.00
11440;BME280;5776;51.814;4.510;2024-01-15T01:20:20;100430.81;;;2.47;100.00
11440;BME280;5776;51.814;4.510;2024-01-15T01:22:46;100426.13;;;2.54;100.00
11440;BME280;5776;51.814;4.510;2024-01-15T01:25:13;100438.94;;;2.52;100.00
11440;BME280;5776;51.814;4.510;2024-01-15T01:27:38;100433.97;;;2.60;100.00
11440;BME280;5776;51.814;4.510;2024-01-15T01:30:05;100432.94;;;2.62;100.00
11440;BME280;5776;51.814;4.510;2024-01-15T01:32:31;100426.75;;;2.61;100.00
11440;BME280;5776;51.814;4.510;2024-01-15T01:34:57;100428.88;;;2.59;100.00
11440;BME280;5776;51.814;4.510;2024-01-15T01:37:24;100427.56;;;2.62;100.00
11440;BME280;5776;51.814;4.510;2024-01-15T01:39:49;100427.81;;;2.60;100.00
11440;BME280;5776;51.814;4.510;2024-01-15T01:42:15;100413.81;;;2.58;100.00
11440;BME280;5776;51.814;4.510;2024-01-15T01:44:41;100423.16;;;2.55;100.00
11440;BME280;5776;51.814;4.510;2024-01-15T01:47:07;100427.72;;;2.55;100.00
11440;BME280;5776;51.814;4.510;2024-01-15T01:49:34;100449.00;;;2.45;100.00
11440;BME280;5776;51.814;4.510;2024-01-15T01:52:02;100460.56;;;2.28;100.00
11440;BME280;5776;51.814;4.510;2024-01-15T01:54:29;100458.69;;;2.00;100.00
11440;BME280;5776;51.814;4.510;2024-01-15T01:56:57;100448.34;;;2.21;100.00
11440;BME280;5776;51.814;4.510;2024-01-15T01:59:25;100427.97;;;2.36;100.00
11440;BME280;5776;51.814;4.510;2024-01-15T02:01:54;100432.13;;;2.44;100.00
11440;BME280;5776;51.814;4.510;2024-01-15T02:04:23;100420.91;;;2.47;100.00
11440;BME280;5776;51.814;4.510;2024-01-15T02:06:50;100428.47;;;2.33;100.00
11440;BME280;5776;51.814;4.510;2024-01-15T02:09:17;100419.94;;;2.36;100.00
11440;BME280;5776;51.814;4.510;2024-01-15T02:11:43;100419.59;;;2.33;100.00
11440;BME280;5776;51.814;4.510;2024-01-15T02:14:09;100426.59;;;2.34;100.00
11440;BME280;5776;51.814;4.510;2024-01-15T02:16:35;100424.00;;;2.39;100.00
11440;BME280;5776;51.814;4.510;2024-01-15T02:19:01;100419.28;;;2.46;100.00
11440;BME280;5776;51.814;4.510;2024-01-15T02:21:26;100419.59;;;2.50;100.00
11440;BME280;5776;51.814;4.510;2024-01-15T02:23:55;100423.81;;;2.46;100.00
11440;BME280;5776;51.814;4.510;2024-01-15T02:26:21;100415.16;;;2.38;100.00
11440;BME280;5776;51.814;4.510;2024-01-15T02:28:48;100407.84;;;2.34;100.00
11440;BME280;5776;51.814;4.510;2024-01-15T02:31:14;100409.22;;;2.36;100.00
11440;BME280;5776;51.814;4.510;2024-01-15T02:33:39;100409.88;;;2.27;100.00
11440;BME280;5776;51.814;4.510;2024-01-15T02:36:07;100419.28;;;2.29;100.00
11440;BME280;5776;51.814;4.510;2024-01-15T02:38:33;100406.59;;;2.08;100.00
11440;BME280;5776;51.814;4.510;2024-01-15T02:40:59;100415.50;;;1.97;100.00
11440;BME280;5776;51.814;4.510;2024-01-15T02:43:25;100423.06;;;2.00;100.00
11440;BME280;5776;51.814;4.510;2024-01-15T02:45:51;100413.59;;;2.09;100.00
11440;BME280;5776;51.814;4.510;2024-01-15T02:48:17;100419.03;;;2.14;100.00
11440;BME280;5776;51.814;4.510;2024-01-15T02:50:43;100415.28;;;2.15;100.00
11440;BME280;5776;51.814;4.510;2024-01-15T02:53:09;100418.28;;;2.02;100.00
11440;BME280;5776;51.814;4.510;2024-01-15T02:55:35;100427.56;;;2.11;100.00
11440;BME280;5776;51.814;4.510;2024-01-15T02:58:01;100425.44;;;2.13;100.00
11440;BME280;5776;51.814;4.510;2024-01-15T03:00:27;100417.38;;;2.13;100.00
11440;BME280;5776;51.814;4.510;2024-01-15T03:02:54;100422.66;;;2.08;100.00
11440;BME280;5776;51.814;4.510;2024-01-15T03:05:20;100417.66;;;2.11;100.00
11440;BME280;5776;51.814;4.510;2024-01-15T03:07:46;100423.72;;;2.07;100.00
11440;BME280;5776;51.814;4.510;2024-01-15T03:10:13;100425.91;;;2.10;100.00
11440;BME280;5776;51.814;4.510;2024-01-15T03:12:39;100428.50;;;2.05;100.00
11440;BME280;5776;51.814;4.510;2024-01-15T03:15:05;100430.28;;;1.99;100.00
11440;BME280;5776;51.814;4.510;2024-01-15T03:17:30;100434.22;;;2.08;100.00
11440;BME280;5776;51.814;4.510;2024-01-15T03:19:56;100437.16;;;2.24;100.00
11440;BME280;5776;51.814;4.510;2024-01-15T03:22:22;100431.38;;;2.32;100.00
11440;BME280;5776;51.814;4.510;2024-01-15T03:24:48;100445.25;;;2.12;100.00
11440;BME280;5776;51.814;4.510;2024-01-15T03:27:14;100433.88;;;2.05;100.00
11440;BME280;5776;51.814;4.510;2024-01-15T03:29:40;100427.47;;;2.06;100.00
11440;BME280;5776;51.814;4.510;2024-01-15T03:32:06;100421.22;;;2.17;100.00
11440;BME280;5776;51.814;4.510;2024-01-15T03:34:32;100420.00;;;2.25;100.00
11440;BME280;5776;51.814;4.510;2024-01-15T03:36:58;100402.88;;;2.26;100.00
11440;BME280;5776;51.814;4.510;2024-01-15T03:39:25;100402.13;;;2.30;100.00
11440;BME280;5776;51.814;4.510;2024-01-15T03:41:51;100409.44;;;2.35;100.00
11440;BME280;5776;51.814;4.510;2024-01-15T03:44:16;100401.09;;;2.31;100.00
11440;BME280;5776;51.814;4.510;2024-01-15T03:46:42;100395.94;;;2.13;100.00
11440;BME280;5776;51.814;4.510;2024-01-15T03:49:08;100395.88;;;2.25;100.00
11440;BME280;5776;51.814;4.510;2024-01-15T03:51:34;100392.16;;;2.26;100.00
11440;BME280;5776;51.814;4.510;2024-01-15T03:54:01;100394.44;;;2.17;100.00
11440;BME280;5776;51.814;4.510;2024-01-15T03:56:26;100382.84;;;2.28;100.00
11440;BME280;5776;51.814;4.510;2024-01-15T03:58:53;100376.41;;;2.29;100.00
11440;BME280;5776;51.814;4.510;2024-01-15T04:01:20;100375.50;;;2.07;100.00
11440;BME280;5776;51.814;4.510;2024-01-15T04:03:46;100379.16;;;2.01;100.00
11440;BME280;5776;51.814;4.510;2024-01-15T04:06:12;100369.72;;;1.98;100.00
11440;BME280;5776;51.814;4.510;2024-01-15T04:08:38;100377.13;;;1.91;100.00
11440;BME280;5776;51.814;4.510;2024-01-15T04:11:04;100372.72;;;1.85;100.00
11440;BME280;5776;51.814;4.510;2024-01-15T04:13:32;100371.84;;;1.96;100.00
11440;BME280;5776;51.814;4.510;2024-01-15T04:16:00;100365.28;;;2.04;100.00
11440;BME280;5776;51.814;4.510;2024-01-15T04:18:25;100365.38;;;2.09;100.00
11440;BME280;5776;51.814;4.510;2024-01-15T04:20:51;100360.00;;;2.09;100.00
11440;BME280;5776;51.814;4.510;2024-01-15T04:23:17;100362.13;;;2.07;100.00
11440;BME280;5776;51.814;4.510;2024-01-15T04:25:43;100364.72;;;2.02;100.00
11440;BME280;5776;51.814;4.510;2024-01-15T04:28:09;100346.75;;;2.02;100.00
11440;BME280;5776;51.814;4.510;2024-01-15T04:30:35;100360.16;;;2.02;100.00
11440;BME280;5776;51.814;4.510;2024-01-15T04:33:01;100346.53;;;2.04;100.00
11440;BME280;5776;51.814;4.510;2024-01-15T04:35:27;100340.84;;;2.00;100.00
11440;BME280;5776;51.814;4.510;2024-01-15T04:37:53;100342.47;;;2.01;100.00
11440;BME280;5776;51.814;4.510;2024-01-15T04:40:18;100335.16;;;1.97;100.00
11440;BME280;5776;51.814;4.510;2024-01-15T04:42:44;100348.13;;;1.88;100.00
11440;BME280;5776;51.814;4.510;2024-01-15T04:45:14;100345.53;;;1.76;100.00
11440;BME280;5776;51.814;4.510;2024-01-15T04:47:39;100350.31;;;1.74;100.00
11440;BME280;5776;51.814;4.510;2024-01-15T04:50:06;100347.16;;;1.77;100.00
11440;BME280;5776;51.814;4.510;2024-01-15T04:52:32;100349.94;;;1.99;100.00
11440;BME280;5776;51.814;4.510;2024-01-15T04:54:58;100356.59;;;2.13;100.00
11440;BME280;5776;51.814;4.510;2024-01-15T04:57:23;100348.94;;;2.05;100.00
11440;BME280;5776;51.814;4.510;2024-01-15T04:59:49;100340.19;;;2.10;100.00
11440;BME280;5776;51.814;4.510;2024-01-15T05:02:15;100337.84;;;2.13;100.00
11440;BME280;5776;51.814;4.510;2024-01-15T05:04:41;100330.34;;;2.15;100.00
11440;BME280;5776;51.814;4.510;2024-01-15T05:07:07;100333.53;;;2.12;100.00
11440;BME280;5776;51.814;4.510;2024-01-15T05:09:34;100333.38;;;2.19;100.00
11440;BME280;5776;51.814;4.510;2024-01-15T05:12:00;100325.41;;;2.24;100.00
11440;BME280;5776;51.814;4.510;2024-01-15T05:14:25;100339.84;;;2.23;100.00
11440;BME280;5776;51.814;4.510;2024-01-15T05:16:51;100356.25;;;2.27;100.00
11440;BME280;5776;51.814;4.510;2024-01-15T05:19:18;100355.19;;;2.28;100.00
11440;BME280;5776;51.814;4.510;2024-01-15T05:21:43;100351.56;;;2.17;100.00
11440;BME280;5776;51.814;4.510;2024-01-15T05:24:10;100348.47;;;2.25;100.00
11440;BME280;5776;51.814;4.510;2024-01-15T05:26:36;100345.84;;;2.30;100.00
11440;BME280;5776;51.814;4.510;2024-01-15T05:29:02;100349.03;;;2.27;100.00
11440;BME280;5776;51.814;4.510;2024-01-15T05:31:27;100341.78;;;2.28;100.00
11440;BME280;5776;51.814;4.510;2024-01-15T05:33:53;100342.28;;;2.25;100.00
11440;BME280;5776;51.814;4.510;2024-01-15T05:36:19;100341.72;;;2.23;100.00
11440;BME280;5776;51.814;4.510;2024-01-15T05:38:45;100322.00;;;2.29;100.00
11440;BME280;5776;51.814;4.510;2024-01-15T05:41:11;100325.25;;;2.31;100.00
11440;BME280;5776;51.814;4.510;2024-01-15T05:43:37;100345.22;;;2.23;100.00
11440;BME280;5776;51.814;4.510;2024-01-15T05:46:03;100350.25;;;2.20;100.00
11440;BME280;5776;51.814;4.510;2024-01-15T05:48:29;100351.56;;;2.17;100.00
11440;BME280;5776;51.814;4.510;2024-01-15T05:50:55;100341.81;;;2.11;100.00
11440;BME280;5776;51.814;4.510;2024-01-15T05:53:21;100343.03;;;1.86;100.00
11440;BME280;5776;51.814;4.510;2024-01-15T05:55:47;100349.25;;;1.75;100.00
11440;BME280;5776;51.814;4.510;2024-01-15T05:58:12;100329.22;;;1.78;100.00
11440;BME280;5776;51.814;4.510;2024-01-15T06:00:38;100329.22;;;1.78;100.00
11440;BME280;5776;51.814;4.510;2024-01-15T06:03:06;100326.53;;;1.78;100.00
11440;BME280;5776;51.814;4.510;2024-01-15T06:05:32;100318.31;;;1.67;100.00
11440;BME280;5776;51.814;4.510;2024-01-15T06:07:57;100310.81;;;1.81;100.00
11440;BME280;5776;51.814;4.510;2024-01-15T06:10:23;100316.09;;;1.76;100.00
11440;BME280;5776;51.814;4.510;2024-01-15T06:12:49;100311.63;;;1.82;100.00
11440;BME280;5776;51.814;4.510;2024-01-15T06:15:15;100307.56;;;1.96;100.00
11440;BME280;5776;51.814;4.510;2024-01-15T06:17:41;100306.09;;;1.88;100.00
11440;BME280;5776;51.814;4.510;2024-01-15T06:20:07;100310.81;;;1.81;100.00
11440;BME280;5776;51.814;4.510;2024-01-15T06:22:34;100317.03;;;1.70;100.00
11440;BME280;5776;51.814;4.510;2024-01-15T06:25:02;100325.78;;;1.65;100.00
11440;BME280;5776;51.814;4.510;2024-01-15T06:27:28;100332.06;;;1.42;100.00
11440;BME280;5776;51.814;4.510;2024-01-15T06:29:54;100336.56;;;1.25;100.00
11440;BME280;5776;51.814;4.510;2024-01-15T06:32:21;100347.13;;;1.32;100.00
11440;BME280;5776;51.814;4.510;2024-01-15T06:34:47;100344.13;;;1.28;100.00
11440;BME280;5776;51.814;4.510;2024-01-15T06:37:14;100338.28;;;1.31;100.00
11440;BME280;5776;51.814;4.510;2024-01-15T06:39:40;100337.31;;;1.37;100.00
11440;BME280;5776;51.814;4.510;2024-01-15T06:42:06;100334.25;;;1.45;100.00
11440;BME280;5776;51.814;4.510;2024-01-15T06:44:32;100338.09;;;1.49;100.00
11440;BME280;5776;51.814;4.510;2024-01-15T06:46:58;100333.66;;;1.26;100.00
11440;BME280;5776;51.814;4.510;2024-01-15T06:49:29;100338.38;;;1.36;100.00
11440;BME280;5776;51.814;4.510;2024-01-15T06:51:55;100324.63;;;1.44;100.00
11440;BME280;5776;51.814;4.510;2024-01-15T06:54:21;100321.00;;;1.50;100.00
11440;BME280;5776;51.814;4.510;2024-01-15T06:56:47;100328.28;;;1.55;100.00
11440;BME280;5776;51.814;4.510;2024-01-15T06:59:13;100326.81;;;1.47;100.00
11440;BME280;5776;51.814;4.510;2024-01-15T07:01:39;100322.78;;;1.62;100.00
11440;BME280;5776;51.814;4.510;2024-01-15T07:04:04;100323.09;;;1.65;100.00
11440;BME280;5776;51.814;4.510;2024-01-15T07:06:30;100330.03;;;1.78;100.00
11440;BME280;5776;51.814;4.510;2024-01-15T07:08:58;100328.00;;;1.85;100.00
11440;BME280;5776;51.814;4.510;2024-01-15T07:11:23;100323.63;;;1.96;100.00
11440;BME280;5776;51.814;4.510;2024-01-15T07:13:49;100327.13;;;1.97;100.00
11440;BME280;5776;51.814;4.510;2024-01-15T07:16:15;100319.50;;;1.88;100.00
11440;BME280;5776;51.814;4.510;2024-01-15T07:18:41;100318.28;;;1.79;100.00
11440;BME280;5776;51.814;4.510;2024-01-15T07:21:07;100322.88;;;1.67;100.00
11440;BME280;5776;51.814;4.510;2024-01-15T07:23:33;100321.91;;;1.56;100.00
11440;BME280;5776;51.814;4.510;2024-01-15T07:25:59;100314.03;;;1.66;100.00
11440;BME280;5776;51.814;4.510;2024-01-15T07:28:24;100302.53;;;1.66;100.00
11440;BME280;5776;51.814;4.510;2024-01-15T07:30:51;100292.69;;;1.55;100.00
11440;BME280;5776;51.814;4.510;2024-01-15T07:33:17;100290.97;;;1.65;100.00
11440;BME280;5776;51.814;4.510;2024-01-15T07:35:43;100295.78;;;1.63;100.00
11440;BME280;5776;51.814;4.510;2024-01-15T07:38:09;100295.13;;;1.73;100.00
11440;BME280;5776;51.814;4.510;2024-01-15T07:40:38;100301.13;;;1.80;100.00
11440;BME280;5776;51.814;4.510;2024-01-15T07:43:03;100308.72;;;1.83;100.00
11440;BME280;5776;51.814;4.510;2024-01-15T07:45:30;100321.59;;;1.86;100.00
11440;BME280;5776;51.814;4.510;2024-01-15T07:47:56;100337.25;;;1.94;100.00
11440;BME280;5776;51.814;4.510;2024-01-15T07:50:22;100339.47;;;1.81;100.00
11440;BME280;5776;51.814;4.510;2024-01-15T07:52:48;100338.47;;;1.87;100.00
11440;BME280;5776;51.814;4.510;2024-01-15T07:55:15;100339.69;;;1.79;100.00
11440;BME280;5776;51.814;4.510;2024-01-15T07:57:41;100334.75;;;1.71;100.00
11440;BME280;5776;51.814;4.510;2024-01-15T08:00:07;100337.88;;;1.68;100.00
11440;BME280;5776;51.814;4.510;2024-01-15T08:02:34;100323.94;;;1.66;100.00
11440;BME280;5776;51.814;4.510;2024-01-15T08:05:00;100320.19;;;1.67;100.00
11440;BME280;5776;51.814;4.510;2024-01-15T08:07:26;100313.25;;;2.00;100.00
11440;BME280;5776;51.814;4.510;2024-01-15T08:09:52;100317.84;;;1.87;100.00
11440;BME280;5776;51.814;4.510;2024-01-15T08:12:18;100307.41;;;1.86;100.00
11440;BME280;5776;51.814;4.510;2024-01-15T08:14:44;100310.16;;;1.74;100.00
11440;BME280;5776;51.814;4.510;2024-01-15T08:17:10;100297.16;;;1.66;100.00
11440;BME280;5776;51.814;4.510;2024-01-15T08:19:36;100310.28;;;1.50;100.00
11440;BME280;5776;51.814;4.510;2024-01-15T08:22:02;100315.97;;;1.54;100.00
11440;BME280;5776;51.814;4.510;2024-01-15T08:24:28;100316.28;;;1.58;100.00
11440;BME280;5776;51.814;4.510;2024-01-15T08:26:54;100320.63;;;1.76;100.00
11440;BME280;5776;51.814;4.510;2024-01-15T08:29:20;100317.59;;;1.72;100.00
11440;BME280;5776;51.814;4.510;2024-01-15T08:31:48;100311.44;;;1.71;100.00
11440;BME280;5776;51.814;4.510;2024-01-15T08:34:14;100327.56;;;1.60;100.00
11440;BME280;5776;51.814;4.510;2024-01-15T08:36:40;100329.53;;;1.98;100.00
11440;BME280;5776;51.814;4.510;2024-01-15T08:39:06;100330.84;;;2.12;100.00
11440;BME280;5776;51.814;4.510;2024-01-15T08:41:34;100333.06;;;1.99;100.00
11440;BME280;5776;51.814;4.510;2024-01-15T08:44:01;100328.72;;;1.98;100.00
11440;BME280;5776;51.814;4.510;2024-01-15T08:46:28;100327.16;;;1.68;100.00
11440;BME280;5776;51.814;4.510;2024-01-15T08:48:55;100319.34;;;1.49;100.00
11440;BME280;5776;51.814;4.510;2024-01-15T08:51:21;100326.19;;;1.57;100.00
11440;BME280;5776;51.814;4.510;2024-01-15T08:53:48;100327.53;;;1.43;100.00
11440;BME280;5776;51.814;4.510;2024-01-15T08:56:14;100324.88;;;1.60;100.00
11440;BME280;5776;51.814;4.510;2024-01-15T08:58:40;100319.31;;;1.61;100.00
11440;BME280;5776;51.814;4.510;2024-01-15T09:01:06;100325.47;;;1.62;100.00
11440;BME280;5776;51.814;4.510;2024-01-15T09:03:32;100326.63;;;1.37;100.00
11440;BME280;5776;51.814;4.510;2024-01-15T09:05:59;100333.19;;;1.58;100.00
11440;BME280;5776;51.814;4.510;2024-01-15T09:08:25;100341.63;;;1.67;100.00
11440;BME280;5776;51.814;4.510;2024-01-15T09:10:53;100325.34;;;1.40;100.00
11440;BME280;5776;51.814;4.510;2024-01-15T09:13:19;100347.94;;;1.61;100.00
11440;BME280;5776;51.814;4.510;2024-01-15T09:15:44;100344.88;;;1.69;100.00
11440;BME280;5776;51.814;4.510;2024-01-15T09:18:10;100344.88;;;1.69;100.00
11440;BME280;5776;51.814;4.510;2024-01-15T09:20:36;100352.22;;;1.62;100.00
11440;BME280;5776;51.814;4.510;2024-01-15T09:23:04;100352.91;;;1.40;100.00
11440;BME280;5776;51.814;4.510;2024-01-15T09:25:30;100356.97;;;1.43;100.00
11440;BME280;5776;51.814;4.510;2024-01-15T09:27:55;100355.22;;;1.65;100.00
11440;BME280;5776;51.814;4.510;2024-01-15T09:30:21;100357.69;;;1.67;100.00
11440;BME280;5776;51.814;4.510;2024-01-15T09:32:47;100358.47;;;1.67;100.00
11440;BME280;5776;51.814;4.510;2024-01-15T09:35:13;100349.81;;;1.77;100.00
11440;BME280;5776;51.814;4.510;2024-01-15T09:37:39;100350.72;;;1.83;100.00
11440;BME280;5776;51.814;4.510;2024-01-15T09:40:06;100360.41;;;1.84;100.00
11440;BME280;5776;51.814;4.510;2024-01-15T09:42:34;100361.16;;;1.67;100.00
11440;BME280;5776;51.814;4.510;2024-01-15T09:45:01;100358.00;;;1.70;100.00
11440;BME280;5776;51.814;4.510;2024-01-15T09:47:29;100363.13;;;1.72;100.00
11440;BME280;5776;51.814;4.510;2024-01-15T09:49:55;100352.00;;;1.80;100.00
11440;BME280;5776;51.814;4.510;2024-01-15T09:52:24;100357.84;;;1.77;100.00
11440;BME280;5776;51.814;4.510;2024-01-15T09:54:51;100363.13;;;1.72;100.00
11440;BME280;5776;51.814;4.510;2024-01-15T09:57:17;100364.84;;;1.78;100.00
11440;BME280;5776;51.814;4.510;2024-01-15T09:59:44;100354.47;;;1.82;100.00
11440;BME280;5776;51.814;4.510;2024-01-15T10:02:13;100350.09;;;1.76;100.00
11440;BME280;5776;51.814;4.510;2024-01-15T10:04:43;100363.31;;;1.82;100.00
11440;BME280;5776;51.814;4.510;2024-01-15T10:07:14;100359.69;;;1.88;100.00
11440;BME280;5776;51.814;4.510;2024-01-15T10:09:41;100356.91;;;1.83;100.00
11440;BME280;5776;51.814;4.510;2024-01-15T10:12:09;100353.25;;;1.89;100.00
11440;BME280;5776;51.814;4.510;2024-01-15T10:14:35;100348.78;;;1.95;100.00
11440;BME280;5776;51.814;4.510;2024-01-15T10:17:12;100348.63;;;2.02;100.00
11440;BME280;5776;51.814;4.510;2024-01-15T10:19:38;100357.31;;;2.09;100.00
11440;BME280;5776;51.814;4.510;2024-01-15T10:22:04;100379.97;;;2.01;100.00
11440;BME280;5776;51.814;4.510;2024-01-15T10:24:30;100403.56;;;1.87;100.00
11440;BME280;5776;51.814;4.510;2024-01-15T10:27:06;100397.13;;;1.71;100.00
11440;BME280;5776;51.814;4.510;2024-01-15T10:29:32;100396.41;;;1.76;100.00
11440;BME280;5776;51.814;4.510;2024-01-15T10:31:59;100388.97;;;1.78;100.00
11440;BME280;5776;51.814;4.510;2024-01-15T10:34:26;100372.56;;;1.91;100.00
11440;BME280;5776;51.814;4.510;2024-01-15T10:36:52;100384.00;;;1.87;100.00
11440;BME280;5776;51.814;4.510;2024-01-15T10:39:22;100384.59;;;1.60;100.00
11440;BME280;5776;51.814;4.510;2024-01-15T10:41:49;100384.75;;;1.54;100.00
11440;BME280;5776;51.814;4.510;2024-01-15T10:44:15;100375.16;;;1.58;100.00
11440;BME280;5776;51.814;4.510;2024-01-15T10:46:41;100378.59;;;1.70;100.00
11440;BME280;5776;51.814;4.510;2024-01-15T10:49:07;100386.28;;;1.78;100.00
11440;BME280;5776;51.814;4.510;2024-01-15T10:51:33;100388.69;;;1.80;100.00
11440;BME280;5776;51.814;4.510;2024-01-15T10:53:59;100392.25;;;1.68;100.00
11440;BME280;5776;51.814;4.510;2024-01-15T10:56:27;100387.41;;;1.82;100.00
11440;BME280;5776;51.814;4.510;2024-01-15T10:58:54;100378.34;;;1.83;100.00
11440;BME280;5776;51.814;4.510;2024-01-15T11:01:20;100377.44;;;1.94;100.00
11440;BME280;5776;51.814;4.510;2024-01-15T11:03:46;100383.28;;;1.91;100.00
11440;BME280;5776;51.814;4.510;2024-01-15T11:06:19;100393.91;;;1.86;100.00
11440;BME280;5776;51.814;4.510;2024-01-15T11:08:48;100401.09;;;1.69;100.00
11440;BME280;5776;51.814;4.510;2024-01-15T11:11:16;100397.44;;;1.75;100.00
11440;BME280;5776;51.814;4.510;2024-01-15T11:13:45;100394.19;;;1.73;100.00
11440;BME280;5776;51.814;4.510;2024-01-15T11:16:14;100406.63;;;1.79;100.00
11440;BME280;5776;51.814;4.510;2024-01-15T11:21:22;100390.34;;;1.81;100.00
11440;BME280;5776;51.814;4.510;2024-01-15T11:26:37;100400.13;;;1.75;100.00
11440;BME280;5776;51.814;4.510;2024-01-15T11:29:07;100401.19;;;1.74;100.00
11440;BME280;5776;51.814;4.510;2024-01-15T11:34:06;100381.72;;;1.95;100.00
11440;BME280;5776;51.814;4.510;2024-01-15T11:42:00;100386.97;;;2.19;100.00
11440;BME280;5776;51.814;4.510;2024-01-15T11:44:28;100390.59;;;2.13;100.00
11440;BME280;5776;51.814;4.510;2024-01-15T11:47:02;100385.34;;;2.01;100.00
11440;BME280;5776;51.814;4.510;2024-01-15T11:52:20;100405.13;;;2.00;100.00
11440;BME280;5776;51.814;4.510;2024-01-15T12:00:08;100421.09;;;1.95;100.00
11440;BME280;5776;51.814;4.510;2024-01-15T12:02:34;100425.34;;;2.08;100.00
11440;BME280;5776;51.814;4.510;2024-01-15T12:05:00;100416.91;;;1.99;100.00
11440;BME280;5776;51.814;4.510;2024-01-15T12:07:27;100429.81;;;2.02;100.00
11440;BME280;5776;51.814;4.510;2024-01-15T12:09:53;100433.88;;;2.05;100.00
11440;BME280;5776;51.814;4.510;2024-01-15T12:15:36;100438.91;;;2.18;100.00
11440;BME280;5776;51.814;4.510;2024-01-15T12:18:02;100432.75;;;2.17;100.00
11440;BME280;5776;51.814;4.510;2024-01-15T12:20:29;100434.03;;;2.15;100.00
11440;BME280;5776;51.814;4.510;2024-01-15T12:22:56;100440.88;;;2.06;100.00
11440;BME280;5776;51.814;4.510;2024-01-15T12:25:26;100443.91;;;1.98;100.00
11440;BME280;5776;51.814;4.510;2024-01-15T12:27:53;100449.94;;;2.05;100.00
11440;BME280;5776;51.814;4.510;2024-01-15T12:30:20;100439.13;;;2.00;100.00
11440;BME280;5776;51.814;4.510;2024-01-15T12:32:47;100448.41;;;2.09;100.00
11440;BME280;5776;51.814;4.510;2024-01-15T12:35:14;100440.88;;;2.06;100.00
11440;BME280;5776;51.814;4.510;2024-01-15T12:37:41;100443.31;;;2.24;100.00
11440;BME280;5776;51.814;4.510;2024-01-15T12:40:08;100448.09;;;2.22;100.00
11440;BME280;5776;51.814;4.510;2024-01-15T12:42:39;100442.88;;;2.15;100.00
11440;BME280;5776;51.814;4.510;2024-01-15T12:45:06;100442.06;;;2.15;100.00
11440;BME280;5776;51.814;4.510;2024-01-15T12:47:32;100448.81;;;2.17;100.00
11440;BME280;5776;51.814;4.510;2024-01-15T12:49:58;100450.69;;;2.17;100.00
11440;BME280;5776;51.814;4.510;2024-01-15T12:52:28;100452.91;;;2.37;100.00
11440;BME280;5776;51.814;4.510;2024-01-15T12:54:56;100456.81;;;2.29;100.00
11440;BME280;5776;51.814;4.510;2024-01-15T12:57:21;100448.44;;;2.43;100.00
11440;BME280;5776;51.814;4.510;2024-01-15T12:59:48;100441.38;;;2.36;100.00
11440;BME280;5776;51.814;4.510;2024-01-15T13:02:16;100446.41;;;2.16;100.00
11440;BME280;5776;51.814;4.510;2024-01-15T13:04:45;100443.16;;;2.14;100.00
11440;BME280;5776;51.814;4.510;2024-01-15T13:07:12;100446.09;;;2.46;100.00
11440;BME280;5776;51.814;4.510;2024-01-15T13:09:38;100448.34;;;2.37;100.00
11440;BME280;5776;51.814;4.510;2024-01-15T13:12:05;100466.91;;;2.10;100.00
11440;BME280;5776;51.814;4.510;2024-01-15T13:14:33;100467.50;;;1.84;100.00
11440;BME280;5776;51.814;4.510;2024-01-15T13:16:59;100454.31;;;1.94;100.00
11440;BME280;5776;51.814;4.510;2024-01-15T13:19:25;100467.56;;;2.01;100.00
11440;BME280;5776;51.814;4.510;2024-01-15T13:21:51;100454.13;;;1.84;100.00